createdAt,value
2019-03-16T00:00:16.394Z,93785.80
2019-03-16T00:02:45.020Z,93794.98
2019-03-16T00:05:13.649Z,93794.98
2019-03-16T00:07:42.305Z,93790.24
2019-03-16T00:10:10.940Z,93797.22
2019-03-16T00:12:39.573Z,93805.52
2019-03-16T00:15:08.736Z,93808.56
2019-03-16T00:17:37.425Z,93808.56
2019-03-16T00:20:10.779Z,93809.19
2019-03-16T00:22:39.521Z,93805.74
2019-03-16T00:25:11.233Z,93799.81
2019-03-16T00:27:39.856Z,93797.27
2019-03-16T00:30:10.941Z,93789.55
2019-03-16T00:32:39.577Z,93791.17
2019-03-16T00:35:08.801Z,93770.62
2019-03-16T00:37:37.483Z,93765.13
2019-03-16T00:40:07.711Z,93776.49
2019-03-16T00:42:36.420Z,93779.16
2019-03-16T00:45:07.391Z,93779.16
2019-03-16T00:47:36.026Z,93768.34
2019-03-16T00:50:07.029Z,93765.39
2019-03-16T00:52:36.147Z,93761.66
2019-03-16T00:55:06.440Z,93761.66
2019-03-16T00:57:35.074Z,93759.69
2019-03-16T01:00:05.417Z,93759.69
2019-03-16T01:02:34.031Z,93756.58
2019-03-16T01:05:02.727Z,93744.50
2019-03-16T01:07:31.398Z,93761.58
2019-03-16T01:10:00.031Z,93763.35
2019-03-16T01:12:28.666Z,93765.16
2019-03-16T01:14:57.404Z,93764.45
2019-03-16T01:17:26.032Z,93756.55
2019-03-16T01:19:54.645Z,93771.99
2019-03-16T01:22:23.305Z,93775.16
2019-03-16T01:24:51.934Z,93764.77
2019-03-16T01:27:20.692Z,93764.77
2019-03-16T01:29:49.370Z,93768.79
2019-03-16T01:32:17.992Z,93758.70
2019-03-16T01:34:46.645Z,93764.70
2019-03-16T01:37:15.360Z,93769.00
2019-03-16T01:39:43.977Z,93764.70
2019-03-16T01:42:12.603Z,93770.24
2019-03-16T01:44:41.282Z,93780.48
2019-03-16T01:47:09.905Z,93788.41
2019-03-16T01:49:38.528Z,93779.81
2019-03-16T01:52:07.194Z,93796.12
2019-03-16T01:54:35.811Z,93796.12
2019-03-16T01:57:04.439Z,93796.19
2019-03-16T01:59:33.100Z,93794.78
2019-03-16T02:02:01.719Z,93796.09
2019-03-16T02:04:30.358Z,93796.09
2019-03-16T02:06:59.089Z,93810.14
2019-03-16T02:09:27.715Z,93803.31
2019-03-16T02:11:56.345Z,93792.39
2019-03-16T02:14:25.007Z,93791.18
2019-03-16T02:16:53.631Z,93786.23
2019-03-16T02:19:22.268Z,93782.15
2019-03-16T02:21:50.950Z,93772.86
2019-03-16T02:24:19.708Z,93775.84
2019-03-16T02:26:48.410Z,93770.53
2019-03-16T02:29:17.079Z,93771.72
2019-03-16T02:31:45.699Z,93785.10
2019-03-16T02:34:14.327Z,93782.36
2019-03-16T02:36:51.134Z,93778.04
2019-03-16T02:39:19.753Z,93775.60
2019-03-16T02:41:48.878Z,93769.78
2019-03-16T02:44:17.538Z,93784.38
2019-03-16T02:46:46.161Z,93786.18
2019-03-16T02:49:14.789Z,93779.38
2019-03-16T02:51:43.457Z,93783.36
2019-03-16T02:54:12.079Z,93776.28
2019-03-16T02:56:40.699Z,93776.13
2019-03-16T02:59:09.365Z,93776.41
2019-03-16T03:01:38.001Z,93771.99
2019-03-16T03:04:06.610Z,93771.50
2019-03-16T03:06:35.272Z,93788.84
2019-03-16T03:09:06.063Z,93777.91
2019-03-16T03:11:34.706Z,93789.78
2019-03-16T03:14:03.365Z,93798.84
2019-03-16T03:16:31.989Z,93777.98
2019-03-16T03:19:00.614Z,93777.98
2019-03-16T03:21:29.227Z,93783.92
2019-03-16T03:23:57.832Z,93791.75
2019-03-16T03:26:26.462Z,93780.22
2019-03-16T03:28:55.131Z,93770.95
2019-03-16T03:31:23.869Z,93766.85
2019-03-16T03:34:02.505Z,93775.11
2019-03-16T03:36:22.976Z,93787.69
2019-03-16T03:38:51.666Z,93792.66
2019-03-16T03:41:20.250Z,93789.30
2019-03-16T03:43:49.021Z,93786.77
2019-03-16T03:46:17.640Z,93785.72
2019-03-16T03:48:46.269Z,93797.63
2019-03-16T03:51:14.946Z,93795.53
2019-03-16T03:53:43.581Z,93796.25
2019-03-16T03:56:12.195Z,93796.25
2019-03-16T03:58:40.856Z,93788.47
2019-03-16T04:01:09.579Z,93790.16
2019-03-16T04:03:38.194Z,93783.30
2019-03-16T04:06:06.853Z,93783.30
2019-03-16T04:08:35.519Z,93761.33
2019-03-16T04:11:04.116Z,93761.33
2019-03-16T04:13:32.805Z,93771.59
2019-03-16T04:16:01.430Z,93756.84
2019-03-16T04:18:30.034Z,93755.23
2019-03-16T04:20:58.711Z,93754.77
2019-03-16T04:23:27.332Z,93744.93
2019-03-16T04:25:55.951Z,93740.42
2019-03-16T04:28:24.618Z,93754.34
2019-03-16T04:30:53.241Z,93746.17
2019-03-16T04:33:21.864Z,93738.66
2019-03-16T04:35:50.526Z,93716.27
2019-03-16T04:38:19.147Z,93735.13
2019-03-16T04:40:47.765Z,93714.67
2019-03-16T04:43:16.439Z,93715.32
2019-03-16T04:45:45.061Z,93713.37
2019-03-16T04:48:13.687Z,93692.52
2019-03-16T04:50:42.351Z,93714.31
2019-03-16T04:53:10.972Z,93697.54
2019-03-16T04:55:39.609Z,93693.98
2019-03-16T04:58:08.258Z,93722.13
2019-03-16T05:00:36.892Z,93737.75
2019-03-16T05:03:08.103Z,93761.46
2019-03-16T05:05:35.897Z,93781.05
2019-03-16T05:08:04.532Z,93776.03
2019-03-16T05:10:33.157Z,93787.45
2019-03-16T05:13:01.827Z,93784.80
2019-03-16T05:15:30.440Z,93787.23
2019-03-16T05:17:59.071Z,93799.57
2019-03-16T05:20:27.723Z,93791.59
2019-03-16T05:22:56.408Z,93788.25
2019-03-16T05:25:25.038Z,93784.66
2019-03-16T05:27:53.703Z,93790.66
2019-03-16T05:30:22.329Z,93790.16
2019-03-16T05:32:50.955Z,93798.98
2019-03-16T05:35:19.624Z,93794.70
2019-03-16T05:37:48.249Z,93799.80
2019-03-16T05:40:16.877Z,93788.00
2019-03-16T05:42:45.542Z,93790.47
2019-03-16T05:45:14.277Z,93774.01
2019-03-16T05:47:42.897Z,93777.72
2019-03-16T05:50:14.092Z,93780.39
2019-03-16T05:52:42.715Z,93769.97
2019-03-16T05:55:11.463Z,93802.86
2019-03-16T05:57:40.125Z,93785.88
2019-03-16T06:00:11.534Z,93785.88
2019-03-16T06:02:40.560Z,93798.36
2019-03-16T06:05:11.181Z,93804.97
2019-03-16T06:07:39.794Z,93804.97
2019-03-16T06:10:10.007Z,93819.52
2019-03-16T06:12:38.676Z,93836.88
2019-03-16T06:15:09.507Z,93830.71
2019-03-16T06:17:38.139Z,93857.17
2019-03-16T06:20:11.676Z,93844.53
2019-03-16T06:22:40.302Z,93844.53
2019-03-16T06:25:09.633Z,93849.78
2019-03-16T06:27:38.372Z,93855.69
2019-03-16T06:30:14.446Z,93853.64
2019-03-16T06:32:43.120Z,93850.14
2019-03-16T06:35:23.923Z,93839.78
2019-03-16T06:37:42.100Z,93839.78
2019-03-16T06:40:11.567Z,93862.34
2019-03-16T06:42:40.203Z,93870.83
2019-03-16T06:45:10.126Z,93870.83
2019-03-16T06:47:38.796Z,93874.00
2019-03-16T06:50:14.980Z,93863.48
2019-03-16T06:52:43.666Z,93849.82
2019-03-16T06:55:12.483Z,93884.71
2019-03-16T06:57:41.115Z,93847.05
2019-03-16T07:00:17.092Z,93847.05
2019-03-16T07:02:45.716Z,93843.21
2019-03-16T07:05:14.651Z,93831.59
2019-03-16T07:07:43.312Z,93831.59
2019-03-16T07:10:12.837Z,93833.44
2019-03-16T07:12:41.474Z,93834.31
2019-03-16T07:15:12.098Z,93834.73
2019-03-16T07:17:40.769Z,93854.48
2019-03-16T07:20:18.442Z,93867.19
2019-03-16T07:22:47.064Z,93849.27
2019-03-16T07:25:15.684Z,93858.63
2019-03-16T07:27:44.343Z,93866.28
2019-03-16T07:30:15.965Z,93872.04
2019-03-16T07:32:44.583Z,93853.47
2019-03-16T07:35:13.244Z,93863.33
2019-03-16T07:37:41.859Z,93860.02
2019-03-16T07:40:11.974Z,93858.07
2019-03-16T07:42:40.662Z,93833.22
2019-03-16T07:45:10.784Z,93823.43
2019-03-16T07:47:39.421Z,93851.02
2019-03-16T07:50:10.655Z,93833.67
2019-03-16T07:52:39.288Z,93842.13
2019-03-16T07:55:08.818Z,93861.95
2019-03-16T07:57:40.519Z,93833.70
2019-03-16T08:00:10.247Z,93826.17
2019-03-16T08:02:38.872Z,93831.86
2019-03-16T08:05:18.260Z,93813.86
2019-03-16T08:07:37.887Z,93816.70
2019-03-16T08:10:10.684Z,93832.36
2019-03-16T08:12:39.416Z,93828.79
2019-03-16T08:15:09.442Z,93835.47
2019-03-16T08:17:38.072Z,93837.75
2019-03-16T08:20:08.329Z,93821.56
2019-03-16T08:22:36.960Z,93819.37
2019-03-16T08:25:06.287Z,93820.05
2019-03-16T08:27:34.949Z,93831.75
2019-03-16T08:30:03.893Z,93815.27
2019-03-16T08:32:32.586Z,93823.55
2019-03-16T08:35:01.319Z,93816.33
2019-03-16T08:37:29.950Z,93810.48
2019-03-16T08:39:58.612Z,93809.01
2019-03-16T08:42:27.299Z,93808.92
2019-03-16T08:44:55.931Z,93812.45
2019-03-16T08:47:24.568Z,93815.84
2019-03-16T08:49:53.230Z,93813.16
2019-03-16T08:52:21.935Z,93808.27
2019-03-16T08:54:50.635Z,93810.62
2019-03-16T08:57:19.325Z,93809.30
2019-03-16T08:59:48.066Z,93812.50
2019-03-16T09:02:16.717Z,93806.17
2019-03-16T09:04:45.381Z,93813.74
2019-03-16T09:07:14.007Z,93816.34
2019-03-16T09:09:42.649Z,93815.22
2019-03-16T09:12:11.335Z,93814.70
2019-03-16T09:14:39.963Z,93811.67
2019-03-16T09:17:09.135Z,93805.70
2019-03-16T09:19:38.052Z,93805.01
2019-03-16T09:22:06.680Z,93797.95
2019-03-16T09:24:35.401Z,93791.69
2019-03-16T09:27:04.238Z,93792.23
2019-03-16T09:29:32.877Z,93795.97
2019-03-16T09:32:01.509Z,93791.78
2019-03-16T09:34:30.189Z,93797.65
2019-03-16T09:36:58.813Z,93807.91
2019-03-16T09:39:27.514Z,93797.41
2019-03-16T09:41:56.255Z,93791.42
2019-03-16T09:44:25.004Z,93796.66
2019-03-16T09:46:53.630Z,93794.55
2019-03-16T09:49:22.390Z,93799.44
2019-03-16T09:51:51.001Z,93804.84
2019-03-16T09:54:19.644Z,93804.92
2019-03-16T09:57:00.169Z,93792.19
2019-03-16T09:59:18.706Z,93796.75
2019-03-16T10:01:47.339Z,93793.57
2019-03-16T10:04:16.019Z,93781.56
2019-03-16T10:06:44.661Z,93783.09
2019-03-16T10:09:13.312Z,93793.69
2019-03-16T10:11:41.983Z,93794.14
2019-03-16T10:14:10.614Z,93790.77
2019-03-16T10:16:39.314Z,93775.34
2019-03-16T10:19:07.981Z,93774.03
2019-03-16T10:21:36.621Z,93761.17
2019-03-16T10:24:05.260Z,93748.01
2019-03-16T10:26:33.938Z,93765.23
2019-03-16T10:29:02.570Z,93735.02
2019-03-16T10:31:31.204Z,93748.02
2019-03-16T10:33:59.909Z,93757.05
2019-03-16T10:36:28.511Z,93766.42
2019-03-16T10:38:57.160Z,93768.31
2019-03-16T10:41:25.822Z,93758.44
2019-03-16T10:43:54.447Z,93768.02
2019-03-16T10:46:23.074Z,93745.95
2019-03-16T10:48:51.738Z,93738.49
2019-03-16T10:51:20.366Z,93729.84
2019-03-16T10:53:48.993Z,93741.86
2019-03-16T10:56:17.664Z,93736.67
2019-03-16T10:58:55.923Z,93731.50
2019-03-16T11:01:16.645Z,93727.61
2019-03-16T11:03:45.318Z,93728.38
2019-03-16T11:06:13.930Z,93716.50
2019-03-16T11:08:42.572Z,93726.91
2019-03-16T11:11:11.231Z,93711.14
2019-03-16T11:13:39.864Z,93721.78
2019-03-16T11:16:08.498Z,93717.50
2019-03-16T11:18:37.161Z,93721.88
2019-03-16T11:21:05.808Z,93720.73
2019-03-16T11:23:34.432Z,93714.57
2019-03-16T11:26:03.105Z,93710.37
2019-03-16T11:28:31.730Z,93703.06
2019-03-16T11:31:00.358Z,93709.00
2019-03-16T11:33:29.015Z,93704.69
2019-03-16T11:35:57.642Z,93694.59
2019-03-16T11:38:26.292Z,93700.09
2019-03-16T11:40:54.952Z,93698.84
2019-03-16T11:43:23.575Z,93700.27
2019-03-16T11:45:52.201Z,93703.08
2019-03-16T11:48:20.877Z,93700.48
2019-03-16T11:50:49.507Z,93691.15
2019-03-16T11:53:18.144Z,93704.33
2019-03-16T11:55:46.810Z,93702.47
2019-03-16T11:58:15.452Z,93701.80
2019-03-16T12:00:44.081Z,93708.73
2019-03-16T12:03:12.743Z,93718.64
2019-03-16T12:05:41.389Z,93718.84
2019-03-16T12:08:10.029Z,93711.91
2019-03-16T12:10:38.685Z,93707.65
2019-03-16T12:13:16.780Z,93705.36
2019-03-16T12:15:37.726Z,93697.45
2019-03-16T12:18:06.398Z,93698.72
2019-03-16T12:20:35.046Z,93710.68
2019-03-16T12:23:03.669Z,93711.52
2019-03-16T12:25:32.323Z,93703.91
2019-03-16T12:28:01.006Z,93699.45
2019-03-16T12:30:29.656Z,93700.50
2019-03-16T12:32:58.324Z,93700.94
2019-03-16T12:35:26.943Z,93713.52
2019-03-16T12:37:55.582Z,93712.67
2019-03-16T12:40:24.268Z,93711.52
2019-03-16T12:42:52.896Z,93706.91
2019-03-16T12:45:21.728Z,93711.17
2019-03-16T12:47:50.413Z,93708.72
2019-03-16T12:50:19.045Z,93711.73
2019-03-16T12:52:47.743Z,93722.48
2019-03-16T12:55:16.420Z,93715.83
2019-03-16T12:57:47.854Z,93715.58
2019-03-16T13:00:20.331Z,93715.50
2019-03-16T13:02:49.042Z,93715.27
2019-03-16T13:05:17.736Z,93714.88
2019-03-16T13:07:46.485Z,93716.23
2019-03-16T13:10:18.956Z,93728.55
2019-03-16T13:12:47.731Z,93728.87
2019-03-16T13:15:16.406Z,93714.19
2019-03-16T13:17:45.041Z,93715.31
2019-03-16T13:20:14.870Z,93719.45
2019-03-16T13:22:43.544Z,93711.95
2019-03-16T13:25:12.382Z,93711.80
2019-03-16T13:27:41.091Z,93724.81
2019-03-16T13:30:12.442Z,93724.26
2019-03-16T13:32:41.084Z,93726.58
2019-03-16T13:35:09.931Z,93727.89
2019-03-16T13:37:38.696Z,93730.78
2019-03-16T13:40:12.242Z,93732.16
2019-03-16T13:42:40.868Z,93734.08
2019-03-16T13:45:10.339Z,93731.59
2019-03-16T13:47:38.966Z,93732.98
2019-03-16T13:50:20.540Z,93736.16
2019-03-16T13:52:49.442Z,93734.93
2019-03-16T13:55:18.071Z,93745.85
2019-03-16T13:57:46.757Z,93748.77
2019-03-16T14:00:19.904Z,93748.35
2019-03-16T14:02:48.542Z,93739.12
2019-03-16T14:05:17.220Z,93746.41
2019-03-16T14:07:46.124Z,93731.27
2019-03-16T14:10:23.423Z,93738.06
2019-03-16T14:12:52.048Z,93742.44
2019-03-16T14:15:20.690Z,93743.50
2019-03-16T14:17:49.347Z,93735.41
2019-03-16T14:20:18.238Z,93743.19
2019-03-16T14:22:46.866Z,93745.83
2019-03-16T14:25:15.532Z,93745.59
2019-03-16T14:27:44.168Z,93750.90
2019-03-16T14:30:25.617Z,93751.07
2019-03-16T14:32:45.676Z,93758.23
2019-03-16T14:35:17.116Z,93753.18
2019-03-16T14:37:46.020Z,93754.56
2019-03-16T14:40:15.698Z,93752.45
2019-03-16T14:42:44.515Z,93758.63
2019-03-16T14:45:16.754Z,93769.59
2019-03-16T14:47:45.749Z,93773.83
2019-03-16T14:50:24.340Z,93769.91
2019-03-16T14:52:53.044Z,93769.20
2019-03-16T14:55:21.645Z,93770.48
2019-03-16T14:57:50.263Z,93781.33
2019-03-16T15:00:19.323Z,93777.69
2019-03-16T15:02:47.943Z,93779.61
2019-03-16T15:05:16.558Z,93784.83
2019-03-16T15:07:45.221Z,93785.38
2019-03-16T15:10:17.767Z,93780.36
2019-03-16T15:12:47.146Z,93774.55
2019-03-16T15:15:18.540Z,93782.69
2019-03-16T15:17:47.976Z,93779.61
2019-03-16T15:20:16.959Z,93785.95
2019-03-16T15:22:46.024Z,93781.72
2019-03-16T15:25:15.307Z,93785.01
2019-03-16T15:27:43.937Z,93790.38
2019-03-16T15:30:15.284Z,93788.84
2019-03-16T15:32:43.912Z,93791.53
2019-03-16T15:35:12.729Z,93794.25
2019-03-16T15:37:41.441Z,93787.31
2019-03-16T15:40:11.669Z,93793.28
2019-03-16T15:42:40.408Z,93780.78
2019-03-16T15:45:14.893Z,93783.41
2019-03-16T15:47:43.523Z,93780.38
2019-03-16T15:50:12.137Z,93781.93
2019-03-16T15:52:40.794Z,93794.73
2019-03-16T15:55:09.407Z,93796.58
2019-03-16T15:57:38.497Z,93801.73
2019-03-16T16:00:15.207Z,93807.61
2019-03-16T16:02:43.822Z,93802.13
2019-03-16T16:05:12.507Z,93807.62
2019-03-16T16:07:41.155Z,93812.13
2019-03-16T16:10:12.487Z,93810.31
2019-03-16T16:12:41.108Z,93809.02
2019-03-16T16:15:11.066Z,93810.83
2019-03-16T16:17:39.897Z,93809.42
2019-03-16T16:20:14.070Z,93808.53
2019-03-16T16:22:42.733Z,93821.64
2019-03-16T16:25:12.052Z,93810.23
2019-03-16T16:27:40.665Z,93818.59
2019-03-16T16:30:14.857Z,93821.97
2019-03-16T16:32:43.600Z,93832.07
2019-03-16T16:35:13.836Z,93830.13
2019-03-16T16:37:42.502Z,93835.64
2019-03-16T16:40:12.996Z,93841.20
2019-03-16T16:42:41.613Z,93838.80
2019-03-16T16:45:12.708Z,93840.07
2019-03-16T16:47:41.432Z,93845.39
2019-03-16T16:50:15.424Z,93845.30
2019-03-16T16:52:44.076Z,93856.84
2019-03-16T16:55:12.716Z,93860.41
2019-03-16T16:57:41.339Z,93864.25
2019-03-16T17:00:18.575Z,93860.70
2019-03-16T17:02:47.202Z,93858.23
2019-03-16T17:05:15.832Z,93854.33
2019-03-16T17:07:44.493Z,93849.72
2019-03-16T17:10:15.684Z,93851.60
2019-03-16T17:12:44.573Z,93863.94
2019-03-16T17:15:23.367Z,93873.02
2019-03-16T17:17:51.988Z,93880.84
2019-03-16T17:20:20.599Z,93877.77
2019-03-16T17:25:27.621Z,93884.20
2019-03-16T17:27:56.248Z,93886.91
2019-03-16T17:30:28.905Z,93882.16
2019-03-16T17:32:57.567Z,93887.38
2019-03-16T17:35:26.188Z,93884.56
2019-03-16T17:37:54.805Z,93884.91
2019-03-16T17:40:23.535Z,93877.39
2019-03-16T17:42:52.179Z,93879.04
2019-03-16T17:45:20.818Z,93891.16
2019-03-16T17:47:49.475Z,93892.29
2019-03-16T17:50:18.100Z,93897.32
2019-03-16T17:52:46.749Z,93898.95
2019-03-16T17:55:16.506Z,93898.27
2019-03-16T17:57:45.699Z,93889.31
2019-03-16T18:00:16.199Z,93889.98
2019-03-16T18:02:51.322Z,93899.87
2019-03-16T18:05:15.208Z,93906.54
2019-03-16T18:07:43.770Z,93919.55
2019-03-16T18:10:15.761Z,93917.56
2019-03-16T18:12:44.524Z,93931.73
2019-03-16T18:15:16.072Z,93938.38
2019-03-16T18:17:44.753Z,93941.78
2019-03-16T18:20:17.067Z,93949.08
2019-03-16T18:22:45.015Z,93936.09
2019-03-16T18:25:14.003Z,93943.54
2019-03-16T18:27:42.644Z,93944.30
2019-03-16T18:30:17.039Z,93949.66
2019-03-16T18:32:45.748Z,93944.53
2019-03-16T18:35:14.383Z,93941.20
2019-03-16T18:37:43.011Z,93947.55
2019-03-16T18:40:13.535Z,93940.31
2019-03-16T18:42:42.181Z,93939.52
2019-03-16T18:45:16.095Z,93946.59
2019-03-16T18:47:44.765Z,93948.87
2019-03-16T18:50:13.404Z,93950.13
2019-03-16T18:52:42.037Z,93956.73
2019-03-16T18:55:12.658Z,93958.00
2019-03-16T18:57:42.423Z,93954.36
2019-03-16T19:00:15.713Z,93944.61
2019-03-16T19:02:44.400Z,93954.55
2019-03-16T19:05:13.013Z,93962.06
2019-03-16T19:07:41.664Z,93945.75
2019-03-16T19:10:12.416Z,93966.28
2019-03-16T19:12:42.175Z,93970.81
2019-03-16T19:15:13.071Z,93978.80
2019-03-16T19:17:41.734Z,93973.64
2019-03-16T19:20:12.126Z,93977.72
2019-03-16T19:22:40.748Z,93973.74
2019-03-16T19:25:12.067Z,93981.23
2019-03-16T19:27:40.702Z,93991.14
2019-03-16T19:30:17.366Z,93986.48
2019-03-16T19:32:46.005Z,93993.20
2019-03-16T19:35:14.705Z,93993.15
2019-03-16T19:37:43.369Z,93993.66
2019-03-16T19:40:16.838Z,93986.25
2019-03-16T19:42:46.942Z,93982.59
2019-03-16T19:45:15.981Z,93985.32
2019-03-16T19:47:44.627Z,93978.63
2019-03-16T19:50:14.349Z,93983.02
2019-03-16T19:52:43.109Z,93979.34
2019-03-16T19:55:12.618Z,93983.86
2019-03-16T19:57:41.239Z,93992.45
2019-03-16T20:00:15.409Z,93996.23
2019-03-16T20:02:50.320Z,93993.66
2019-03-16T20:05:14.574Z,93999.73
2019-03-16T20:07:43.232Z,94005.09
2019-03-16T20:10:16.942Z,94006.44
2019-03-16T20:12:45.688Z,94017.91
2019-03-16T20:15:15.214Z,94017.61
2019-03-16T20:17:43.837Z,94027.77
2019-03-16T20:20:13.659Z,94026.95
2019-03-16T20:22:42.417Z,94027.74
2019-03-16T20:25:11.058Z,94028.72
2019-03-16T20:27:39.664Z,94035.88
2019-03-16T20:30:15.032Z,94026.31
2019-03-16T20:32:43.645Z,94035.45
2019-03-16T20:35:12.272Z,94034.13
2019-03-16T20:37:40.937Z,94034.70
2019-03-16T20:40:11.638Z,94024.58
2019-03-16T20:42:40.256Z,94037.94
2019-03-16T20:45:10.094Z,94032.17
2019-03-16T20:47:38.723Z,94038.58
2019-03-16T20:50:13.232Z,94032.90
2019-03-16T20:52:41.898Z,94029.97
2019-03-16T20:55:10.929Z,94031.42
2019-03-16T20:57:39.563Z,94036.30
2019-03-16T21:00:18.266Z,94032.91
2019-03-16T21:02:47.182Z,94042.34
2019-03-16T21:05:17.227Z,94031.66
2019-03-16T21:07:45.960Z,94039.00
2019-03-16T21:10:14.681Z,94046.31
2019-03-16T21:12:43.328Z,94045.75
2019-03-16T21:15:14.049Z,94041.57
2019-03-16T21:17:42.683Z,94044.58
2019-03-16T21:20:13.468Z,94052.17
2019-03-16T21:22:42.151Z,94040.58
2019-03-16T21:25:12.648Z,94046.52
2019-03-16T21:27:41.365Z,94043.49
2019-03-16T21:30:18.252Z,94041.95
2019-03-16T21:32:46.968Z,94056.52
2019-03-16T21:35:15.590Z,94056.38
2019-03-16T21:37:44.171Z,94050.03
2019-03-16T21:40:13.602Z,94056.27
2019-03-16T21:42:42.224Z,94049.75
2019-03-16T21:45:12.292Z,94052.25
2019-03-16T21:47:40.911Z,94057.02
2019-03-16T21:50:13.975Z,94071.20
2019-03-16T21:52:44.657Z,94068.59
2019-03-16T21:55:14.410Z,94073.67
2019-03-16T21:57:42.962Z,94073.38
2019-03-16T22:00:16.302Z,94066.81
2019-03-16T22:02:44.927Z,94066.78
2019-03-16T22:05:13.538Z,94063.78
2019-03-16T22:07:43.844Z,94079.16
2019-03-16T22:10:13.761Z,94084.02
2019-03-16T22:12:42.379Z,94079.00
2019-03-16T22:15:12.525Z,94071.89
2019-03-16T22:17:41.144Z,94087.09
2019-03-16T22:20:13.895Z,94071.86
2019-03-16T22:22:42.621Z,94076.77
2019-03-16T22:25:11.641Z,94083.58
2019-03-16T22:27:40.275Z,94076.77
2019-03-16T22:30:11.582Z,94080.80
2019-03-16T22:32:40.204Z,94070.40
2019-03-16T22:35:09.434Z,94085.03
2019-03-16T22:37:38.175Z,94083.42
2019-03-16T22:40:11.392Z,94090.52
2019-03-16T22:42:40.017Z,94075.72
2019-03-16T22:45:11.587Z,94087.98
2019-03-16T22:47:40.310Z,94079.66
2019-03-16T22:50:11.379Z,94077.76
2019-03-16T22:52:40.018Z,94077.34
2019-03-16T22:55:08.740Z,94077.64
2019-03-16T22:57:37.355Z,94069.51
2019-03-16T23:00:09.154Z,94076.08
2019-03-16T23:02:37.845Z,94066.23
2019-03-16T23:05:09.065Z,94070.75
2019-03-16T23:07:37.709Z,94071.89
2019-03-16T23:10:09.299Z,94063.37
2019-03-16T23:12:37.931Z,94056.16
2019-03-16T23:15:11.192Z,94060.78
2019-03-16T23:17:39.800Z,94070.06
2019-03-16T23:20:09.315Z,94067.20
2019-03-16T23:22:37.977Z,94067.08
2019-03-16T23:25:10.547Z,94061.54
2019-03-16T23:27:39.154Z,94055.56
2019-03-16T23:30:09.515Z,94067.69
2019-03-16T23:32:38.133Z,94070.24
2019-03-16T23:35:07.948Z,94071.89
2019-03-16T23:37:36.617Z,94071.41
2019-03-16T23:40:10.318Z,94076.81
2019-03-16T23:42:38.935Z,94082.53
2019-03-16T23:45:09.488Z,94071.19
2019-03-16T23:47:38.122Z,94078.17
2019-03-16T23:50:09.573Z,94075.30
2019-03-16T23:52:38.280Z,94065.59
2019-03-16T23:55:07.601Z,94070.29
2019-03-16T23:57:36.216Z,94076.27
